M I D A S
Marine Information and Data Acquisition System
Tripno 2175 of the Zeeleeuw from 2011-07-06 06:55:43 to 2011-07-06 15:21:16
Back to CruiseResearch ActivitiesStationsMapUnderway DataData graphs

EquipmentUnitsComment
TimeDGPSUTC
LatitudeDGPSDM.mWGS84
LongitudeDGPSDM.mWGS84
HeadingGyrodeg 
SOGDGPSknotsSpeed over ground
COGDGPSdegCourse over ground
DepthEcho soundermeters200 kHz
Missing or incorrect values are displayed as -999
Navigation data collected by the RV Zeeleeuw from 2011-07-06 06:51:35 to 2011-07-06 16:11:52
Time Latitude Longitude Heading SOG COG Depth
2011-07-06 06:52:40 51°13.64 2°56.003 109.7 2 292 8.5
2011-07-06 06:53:41 51°13.66 2°55.924 110.4 3.9 294 -999
2011-07-06 06:54:41 51°13.681 2°55.831 101 3.4 287 -999
2011-07-06 06:55:40 51°13.692 2°55.783 75.8 1.1 34 12.3
2011-07-06 06:56:38 51°13.701 2°55.793 29.8 0.3 247 12.6
2011-07-06 06:57:38 51°13.75 2°55.757 312.9 4.8 314 9.8
2011-07-06 06:58:37 51°13.805 2°55.669 319.1 4.3 321 11.3
2011-07-06 06:59:37 51°13.87 2°55.602 329.2 5.1 330 11.9
2011-07-06 07:00:37 51°13.947 2°55.531 328.4 5.7 330 11.9
2011-07-06 07:01:38 51°14.04 2°55.461 336.9 6.3 337 11.4
2011-07-06 07:02:37 51°14.144 2°55.389 336 7.6 336 11.4
2011-07-06 07:03:38 51°14.268 2°55.293 332.9 8.4 331 11.4
2011-07-06 07:04:38 51°14.401 2°55.17 329.8 10 328 10.8
2011-07-06 07:05:38 51°14.564 2°55.005 324.5 12.9 324 12.4
2011-07-06 07:06:37 51°14.737 2°54.804 324.1 13.2 323 12.3
2011-07-06 07:07:38 51°14.914 2°54.587 323.3 13.2 323 13.1
2011-07-06 07:08:37 51°15.093 2°54.404 324.9 12.9 326 12.5
2011-07-06 07:09:38 51°15.262 2°54.185 318.8 12.9 320 12.4
2011-07-06 07:10:37 51°15.428 2°53.976 322.3 12.9 323 12.9
2011-07-06 07:11:37 51°15.6 2°53.775 321.6 12.7 323 12.4
2011-07-06 07:12:38 51°15.77 2°53.567 323.1 12.7 323 12.5
2011-07-06 07:13:37 51°15.937 2°53.364 323.6 12.8 324 13
2011-07-06 07:14:38 51°16.113 2°53.16 329 12.9 330 13.2
2011-07-06 07:15:37 51°16.313 2°53.05 344.2 13 344 12.5
2011-07-06 07:16:37 51°16.519 2°52.952 343.1 12.8 342 12.4
2011-07-06 07:17:37 51°16.723 2°52.851 343.1 12.9 343 10.8
2011-07-06 07:18:38 51°16.927 2°52.733 339.2 12.8 339 10.3
2011-07-06 07:19:37 51°17.127 2°52.616 339.2 12.9 339 9.7
2011-07-06 07:20:38 51°17.334 2°52.502 341 12.9 340 10.5
2011-07-06 07:21:38 51°17.539 2°52.403 348.6 12.9 347 11
2011-07-06 07:22:38 51°17.753 2°52.35 352.7 12.9 353 11.1
2011-07-06 07:23:38 51°17.966 2°52.322 356.3 12.9 356 11
2011-07-06 07:24:37 51°18.176 2°52.314 5.2 12.9 2 11.2
2011-07-06 07:25:38 51°18.394 2°52.314 0.8 12.9 1 11.6
2011-07-06 07:26:37 51°18.606 2°52.304 0.1 13 359 12
2011-07-06 07:27:38 51°18.825 2°52.294 359.8 12.9 358 12.7
2011-07-06 07:28:38 51°19.041 2°52.314 7.2 13.1 7 13.7
2011-07-06 07:29:38 51°19.254 2°52.361 11.4 13 8 14.8
2011-07-06 07:30:37 51°19.458 2°52.437 22.2 12.7 18 15.5
2011-07-06 07:31:38 51°19.648 2°52.592 38.6 12.5 41 15.8
2011-07-06 07:32:38 51°19.787 2°52.842 51.9 12.6 51 15.8
2011-07-06 07:33:37 51°19.925 2°53.098 49.4 12.9 48 15.9
2011-07-06 07:34:37 51°20.074 2°53.35 42.9 12.9 41 16
2011-07-06 07:35:37 51°20.235 2°53.567 40.7 12.8 41 16.2
2011-07-06 07:36:38 51°20.406 2°53.771 39.9 12.5 40 16.3
2011-07-06 07:37:37 51°20.564 2°53.983 41 12.6 39 16.4
2011-07-06 07:38:37 51°20.728 2°54.189 38.7 12.6 36 16.8
2011-07-06 07:39:38 51°20.899 2°54.389 40.7 12.7 38 16.7
2011-07-06 07:40:37 51°21.064 2°54.597 40.9 12.8 37 16.8
2011-07-06 07:41:37 51°21.231 2°54.807 39.7 12.5 37 17.1
2011-07-06 07:42:37 51°21.4 2°55.01 39.8 12.7 34 17.4
2011-07-06 07:43:37 51°21.564 2°55.221 42.6 12.8 39 17.4
2011-07-06 07:44:37 51°21.728 2°55.439 41 12.7 36 17.4
2011-07-06 07:45:37 51°21.899 2°55.641 38.1 12.7 35 17.4
2011-07-06 07:46:37 51°22.069 2°55.84 40.5 12.9 37 17.8
2011-07-06 07:47:37 51°22.243 2°56.042 40.8 12.9 37 17.8
2011-07-06 07:48:37 51°22.41 2°56.259 41.4 12.8 40 18.2
2011-07-06 07:49:37 51°22.568 2°56.477 47.3 12.7 43 18.2
2011-07-06 07:50:37 51°22.724 2°56.702 44.7 12.6 39 18.2
2011-07-06 07:51:37 51°22.877 2°56.926 45.8 12.4 45 18.2
2011-07-06 07:52:37 51°23.014 2°57.177 52.3 12.2 52 18.1
2011-07-06 07:53:37 51°23.165 2°57.411 45.8 12.4 43 18
2011-07-06 07:54:37 51°23.319 2°57.63 46.6 12.5 45 17.5
2011-07-06 07:55:37 51°23.47 2°57.859 47.5 12.8 45 17.6
2011-07-06 07:56:37 51°23.63 2°58.077 42 12.7 41 17.4
2011-07-06 07:57:37 51°23.79 2°58.299 45.1 12.6 43 16.6
2011-07-06 07:58:37 51°23.947 2°58.525 47.5 12.7 42 16.2
2011-07-06 07:59:37 51°24.103 2°58.746 43 12.7 39 15.8
2011-07-06 08:00:37 51°24.262 2°58.965 41.9 12.7 35 15
2011-07-06 08:01:37 51°24.444 2°59.145 34.3 12.9 27 15
2011-07-06 08:02:37 51°24.634 2°59.309 31.8 12.9 28 16.9
2011-07-06 08:03:37 51°24.819 2°59.48 33 12.8 29 19.3
2011-07-06 08:04:37 51°24.998 2°59.667 38.6 12.9 33 17.1
2011-07-06 08:05:37 51°25.175 2°59.859 39.6 12.7 34 16.4
2011-07-06 08:06:37 51°25.352 3°0.047 38.2 12.9 34 16.3
2011-07-06 08:07:37 51°25.527 3°0.242 39.6 13 35 15.6
2011-07-06 08:08:37 51°25.707 3°0.429 37.7 12.8 37 15
2011-07-06 08:09:37 51°25.887 3°0.623 38.1 12.9 33 13.9
2011-07-06 08:10:37 51°26.064 3°0.812 37.3 12.9 32 12.2
2011-07-06 08:11:37 51°26.244 3°0.995 40.2 12.9 34 13
2011-07-06 08:12:37 51°26.426 3°1.183 38.6 13.2 34 14.2
2011-07-06 08:13:37 51°26.609 3°1.363 36.5 12.8 31 14.7
2011-07-06 08:14:37 51°26.786 3°1.547 34.2 12.7 29 13.5
2011-07-06 08:15:37 51°26.966 3°1.73 36.4 12.9 33 12.8
2011-07-06 08:16:37 51°27.144 3°1.919 37.9 13 34 13.9
2011-07-06 08:17:37 51°27.327 3°2.097 35.4 13 30 14.6
2011-07-06 08:18:37 51°27.508 3°2.288 37.3 12.8 36 17.7
2011-07-06 08:19:37 51°27.689 3°2.477 37.2 13 33 20.4
2011-07-06 08:20:37 51°27.865 3°2.676 38.6 12.9 34 21.1
2011-07-06 08:21:37 51°28.041 3°2.876 37.8 12.9 31 21.9
2011-07-06 08:22:37 51°28.219 3°3.061 34.4 12.7 35 22.2
2011-07-06 08:23:37 51°28.4 3°3.241 37.4 12.7 35 22.4
2011-07-06 08:24:37 51°28.568 3°3.441 39.7 12.8 36 22.5
2011-07-06 08:25:37 51°28.741 3°3.635 37.2 12.8 32 23
2011-07-06 08:26:37 51°28.916 3°3.822 37.8 12.9 31 22.8
2011-07-06 08:27:37 51°29.093 3°4.001 35.5 12.5 34 23.3
2011-07-06 08:28:37 51°29.27 3°4.182 35.3 12.5 31 23.1
2011-07-06 08:29:37 51°29.446 3°4.359 39.4 12.6 31 23.3
2011-07-06 08:30:37 51°29.628 3°4.534 31.5 12.9 29 22.8
2011-07-06 08:31:37 51°29.798 3°4.691 34.6 9.1 29 23.1
2011-07-06 08:32:37 51°29.88 3°4.755 25.6 2.8 17 23.1
2011-07-06 08:33:37 51°29.906 3°4.758 8.7 1.1 352 23.2
2011-07-06 08:34:37 51°29.925 3°4.751 342.4 1.2 348 23.1
2011-07-06 08:35:37 51°29.941 3°4.743 323.1 0.7 342 22.8
2011-07-06 08:36:37 51°29.953 3°4.743 318.9 0.5 3 22.1
2011-07-06 08:37:37 51°29.961 3°4.746 326.3 0.4 15 22.5
2011-07-06 08:38:37 51°29.968 3°4.75 332.4 0.4 16 22.1
2011-07-06 08:39:37 51°29.974 3°4.751 339.4 0.4 3 21.1
2011-07-06 08:40:37 51°29.98 3°4.753 344.2 0.4 9 21.7
2011-07-06 08:41:37 51°29.987 3°4.753 342.8 0.5 16 21.8
2011-07-06 08:42:37 51°29.996 3°4.753 341.9 0.6 349 22
2011-07-06 08:43:37 51°30.004 3°4.749 336.9 0.7 354 22.3
2011-07-06 08:44:37 51°30.013 3°4.744 329.7 0.6 335 22
2011-07-06 08:45:37 51°30.023 3°4.742 326 0.4 350 22.8
2011-07-06 08:46:37 51°30.031 3°4.742 324.8 0.5 355 22.5
2011-07-06 08:47:37 51°30.04 3°4.741 325.4 0.6 1 23
2011-07-06 08:48:37 51°30.048 3°4.742 325.4 0.7 9 22.9
2011-07-06 08:49:37 51°30.057 3°4.742 325.9 0.5 352 22.6
2011-07-06 08:50:37 51°30.066 3°4.741 325.7 0.5 336 22.4
2011-07-06 08:51:37 51°30.074 3°4.738 323.8 0.6 12 23.1
2011-07-06 08:52:37 51°30.082 3°4.738 327.8 0.4 -999 22.6
2011-07-06 08:53:37 51°30.089 3°4.737 328.9 0.5 4 22.1
2011-07-06 08:54:37 51°30.096 3°4.736 331 0.5 341 21.9
2011-07-06 08:55:37 51°30.103 3°4.734 329.2 0.4 359 22.2
2011-07-06 08:56:37 51°30.111 3°4.732 326.6 0.4 340 22.2
2011-07-06 08:57:37 51°30.12 3°4.728 324.2 0.6 353 22.9
2011-07-06 08:58:37 51°30.128 3°4.724 321 0.5 342 21.9
2011-07-06 08:59:37 51°30.135 3°4.722 320.6 0.4 351 22.5
2011-07-06 09:00:37 51°30.141 3°4.719 319 0.3 333 22
2011-07-06 09:01:37 51°30.146 3°4.72 319.7 0.3 353 22
2011-07-06 09:02:37 51°30.151 3°4.721 324.5 0.3 7 21.9
2011-07-06 09:03:37 51°30.155 3°4.722 330 0.3 4 22.5
2011-07-06 09:04:37 51°30.159 3°4.72 330 0.3 344 21.9
2011-07-06 09:05:37 51°30.165 3°4.717 323.3 0.5 352 22.3
2011-07-06 09:06:37 51°30.185 3°4.703 342.2 2.4 337 22.4
2011-07-06 09:07:37 51°30.225 3°4.686 0.3 2.4 349 22
2011-07-06 09:08:37 51°30.262 3°4.681 16.2 2.2 2 20.4
2011-07-06 09:09:37 51°30.298 3°4.688 25.1 2.2 13 21.4
2011-07-06 09:10:37 51°30.33 3°4.704 37.1 1.9 24 21.9
2011-07-06 09:11:37 51°30.355 3°4.734 59.9 1.8 45 22.2
2011-07-06 09:12:37 51°30.368 3°4.772 84.2 1.5 71 21.8
2011-07-06 09:13:37 51°30.372 3°4.805 97.4 1.2 91 21.4
2011-07-06 09:14:37 51°30.368 3°4.833 109.3 1.1 110 21.2
2011-07-06 09:15:37 51°30.36 3°4.86 118.6 1.1 118 20.7
2011-07-06 09:16:37 51°30.351 3°4.884 122 1.1 121 21.7
2011-07-06 09:17:37 51°30.341 3°4.907 123 1.2 129 22.1
2011-07-06 09:18:37 51°30.325 3°4.936 128.4 1.8 136 22.2
2011-07-06 09:19:37 51°30.306 3°4.971 130.2 1.7 133 21.9
2011-07-06 09:20:37 51°30.289 3°4.999 133.7 1.5 140 21.8
2011-07-06 09:21:37 51°30.271 3°5.019 140.5 1.2 144 21.6
2011-07-06 09:22:37 51°30.252 3°5.037 144.2 1.6 157 21.8
2011-07-06 09:23:37 51°30.22 3°5.061 151.2 2.9 163 22
2011-07-06 09:24:37 51°30.171 3°5.087 155 2.9 162 22.3
2011-07-06 09:25:37 51°30.127 3°5.108 157.7 2.6 167 20.8
2011-07-06 09:26:37 51°30.083 3°5.119 162.7 2.8 170 23
2011-07-06 09:27:37 51°30.037 3°5.128 164.1 2.6 178 22.9
2011-07-06 09:28:37 51°30.009 3°5.132 163 1.2 175 23.3
2011-07-06 09:29:37 51°29.997 3°5.132 159 0.5 203 22.9
2011-07-06 09:30:37 51°29.993 3°5.131 154.5 -999 225 23.4
2011-07-06 09:31:37 51°29.992 3°5.131 142.4 0.5 138 23.1
2011-07-06 09:32:37 51°29.944 3°5.149 169.1 6 178 23
2011-07-06 09:33:37 51°29.842 3°5.092 218.5 7.3 227 23.9
2011-07-06 09:34:37 51°29.753 3°4.844 242.6 12.8 245 22.6
2011-07-06 09:35:37 51°29.676 3°4.517 247.4 13.2 251 23
2011-07-06 09:36:37 51°29.593 3°4.191 244.1 13.2 245 22.3
2011-07-06 09:37:37 51°29.507 3°3.869 244.9 13.1 248 22.1
2011-07-06 09:38:37 51°29.418 3°3.547 243.7 13.2 246 22.1
2011-07-06 09:39:37 51°29.338 3°3.22 247.5 13.2 251 22.1
2011-07-06 09:40:37 51°29.258 3°2.891 246.1 13.2 247 21.7
2011-07-06 09:41:37 51°29.166 3°2.57 243.2 13.2 245 21.9
2011-07-06 09:42:37 51°29.076 3°2.246 244.9 13.2 248 21.5
2011-07-06 09:43:37 51°28.989 3°1.92 244.8 13.3 247 21.2
2011-07-06 09:44:37 51°28.901 3°1.594 244.7 13.4 247 21.4
2011-07-06 09:45:37 51°28.823 3°1.265 247.8 13.3 249 20.9
2011-07-06 09:46:37 51°28.735 3°0.94 243.3 13.3 245 20.1
2011-07-06 09:47:37 51°28.649 3°0.616 247.2 13.2 249 20.6
2011-07-06 09:48:37 51°28.564 3°0.293 242.6 13.2 244 20.5
2011-07-06 09:49:37 51°28.455 2°59.987 237.7 13.2 239 21.3
2011-07-06 09:50:37 51°28.347 2°59.682 238 13.1 241 21.2
2011-07-06 09:51:37 51°28.247 2°59.37 242.9 13.3 244 21.5
2011-07-06 09:52:37 51°28.146 2°59.058 239.6 13.2 241 22.8
2011-07-06 09:53:37 51°28.036 2°58.752 239.1 13.3 241 23.4
2011-07-06 09:54:37 51°27.934 2°58.439 242.4 13.3 244 24.7
2011-07-06 09:55:37 51°27.832 2°58.125 239.6 13.4 241 25.2
2011-07-06 09:56:37 51°27.718 2°57.817 239.5 13.5 239 25.7
2011-07-06 09:57:37 51°27.614 2°57.5 241.3 13.5 240 26.2
2011-07-06 09:58:37 51°27.503 2°57.188 239.2 13.4 241 25.6
2011-07-06 09:59:37 51°27.397 2°56.873 243.2 13.4 243 22.8
2011-07-06 10:00:37 51°27.291 2°56.553 238.2 13.6 240 23.4
2011-07-06 10:01:37 51°27.178 2°56.24 241.8 13.6 241 26.3
2011-07-06 10:02:37 51°27.072 2°55.92 239.9 13.6 240 27.7
2011-07-06 10:03:37 51°26.958 2°55.608 238.3 13.4 239 28.7
2011-07-06 10:04:37 51°26.844 2°55.296 239.9 13.7 240 26.3
2011-07-06 10:05:37 51°26.745 2°54.969 245 13.7 244 25.9
2011-07-06 10:06:37 51°26.647 2°54.639 245.5 13.6 245 23.8
2011-07-06 10:07:37 51°26.55 2°54.305 244.8 13.8 245 27.8
2011-07-06 10:08:37 51°26.443 2°53.981 240.6 13.8 242 31.3
2011-07-06 10:09:37 51°26.341 2°53.656 245.2 13.6 245 31.6
2011-07-06 10:10:37 51°26.247 2°53.328 243.8 13.5 245 30.6
2011-07-06 10:11:37 51°26.126 2°53.033 221.9 13.3 222 28.2
2011-07-06 10:12:37 51°25.926 2°52.909 179.7 12.7 183 24.8
2011-07-06 10:13:37 51°25.723 2°52.982 152.2 12.5 156 24.4
2011-07-06 10:14:37 51°25.541 2°53.139 141.2 12.4 145 23.1
2011-07-06 10:15:37 51°25.371 2°53.328 138 12.6 147 21.8
2011-07-06 10:16:37 51°25.205 2°53.526 139.2 12.4 144 19.8
2011-07-06 10:17:37 51°25.038 2°53.723 136.3 12.5 143 20
2011-07-06 10:18:37 51°24.867 2°53.914 138.5 12.6 147 19.1
2011-07-06 10:19:37 51°24.696 2°54.104 139.1 12.5 144 16.3
2011-07-06 10:20:37 51°24.525 2°54.292 139 12.5 144 18
2011-07-06 10:21:37 51°24.355 2°54.483 136.9 12.6 144 21.4
2011-07-06 10:22:37 51°24.183 2°54.668 138.5 12.4 148 21
2011-07-06 10:23:37 51°24.011 2°54.853 137.3 12.5 148 20.3
2011-07-06 10:24:37 51°23.844 2°55.047 135.8 12.4 143 20
2011-07-06 10:25:37 51°23.681 2°55.248 135.2 12.3 142 17
2011-07-06 10:26:37 51°23.517 2°55.449 135.1 12.5 142 17.8
2011-07-06 10:27:37 51°23.351 2°55.65 138.6 12.5 148 17.7
2011-07-06 10:28:37 51°23.166 2°55.802 151 12.6 157 18.8
2011-07-06 10:29:37 51°22.968 2°55.911 156.1 12.8 163 17.9
2011-07-06 10:30:37 51°22.762 2°55.988 161.9 12.9 168 16.9
2011-07-06 10:31:37 51°22.552 2°56.047 162.8 12.7 171 17.5
2011-07-06 10:32:37 51°22.344 2°56.111 160.2 12.8 168 17.1
2011-07-06 10:33:37 51°22.166 2°56.218 118.3 8.9 118 17
2011-07-06 10:34:37 51°22.225 2°56.44 56.3 10.8 54 16.9
2011-07-06 10:35:37 51°22.335 2°56.679 54.6 11.4 56 17
2011-07-06 10:36:37 51°22.44 2°56.93 56.5 11.3 57 17.1
2011-07-06 10:37:37 51°22.537 2°57.191 60.8 11.4 65 17.3
2011-07-06 10:38:37 51°22.619 2°57.461 61.9 11.5 61 17.3
2011-07-06 10:39:37 51°22.711 2°57.729 59.6 11.3 61 17.2
2011-07-06 10:40:37 51°22.803 2°57.996 62.1 11.5 62 17.3
2011-07-06 10:41:37 51°22.896 2°58.267 58.2 11.8 60 17.4
2011-07-06 10:42:37 51°22.988 2°58.536 61 11.4 64 17.4
2011-07-06 10:43:37 51°23.08 2°58.805 59.5 11.7 63 17.4
2011-07-06 10:44:37 51°23.175 2°59.073 60.4 11.6 61 17.2
2011-07-06 10:45:37 51°23.266 2°59.347 60.3 11.7 62 17.2
2011-07-06 10:46:37 51°23.355 2°59.619 63.7 11.7 65 17.5
2011-07-06 10:47:37 51°23.439 2°59.901 60.3 11.7 60 17.2
2011-07-06 10:48:37 51°23.542 3°0.164 57.3 11.6 57 17.6
2011-07-06 10:49:37 51°23.635 3°0.433 61.7 11.4 63 17.3
2011-07-06 10:50:37 51°23.731 3°0.701 56 11.6 56 17.6
2011-07-06 10:51:37 51°23.83 3°0.967 58.9 11.6 57 17.3
2011-07-06 10:52:37 51°23.928 3°1.233 59.8 11.4 58 17.4
2011-07-06 10:53:37 51°24.025 3°1.498 57.3 11.8 60 17.8
2011-07-06 10:54:37 51°24.126 3°1.768 59.1 11.9 59 17.5
2011-07-06 10:55:37 51°24.23 3°2.037 59.1 11.9 61 17
2011-07-06 10:56:37 51°24.333 3°2.307 60.3 11.9 59 17
2011-07-06 10:57:37 51°24.447 3°2.559 45.5 11.8 41 18.6
2011-07-06 10:58:37 51°24.608 3°2.745 36.5 12.1 41 19.3
2011-07-06 10:59:37 51°24.744 3°2.973 53.8 11.7 55 17.6
2011-07-06 11:00:37 51°24.837 3°3.249 64.1 12 66 14.8
2011-07-06 11:01:37 51°24.927 3°3.531 58.9 11.6 61 13.9
2011-07-06 11:02:37 51°25.013 3°3.813 65 11.7 67 14.2
2011-07-06 11:03:37 51°25.102 3°4.093 59 11.9 62 13.4
2011-07-06 11:04:37 51°25.188 3°4.376 60.2 11.8 63 12.4
2011-07-06 11:05:37 51°25.272 3°4.658 61.1 11.8 64 12
2011-07-06 11:06:37 51°25.36 3°4.934 59.6 11.7 62 11.5
2011-07-06 11:07:37 51°25.453 3°5.207 59.2 11.6 64 10.7
2011-07-06 11:08:37 51°25.532 3°5.489 63.2 11.5 68 10.5
2011-07-06 11:09:37 51°25.615 3°5.764 60.1 11.7 64 10
2011-07-06 11:10:37 51°25.7 3°6.044 61.1 11.6 66 9.8
2011-07-06 11:11:37 51°25.784 3°6.325 56.1 11.5 60 9.7
2011-07-06 11:12:37 51°25.874 3°6.599 61.1 11.9 62 9.5
2011-07-06 11:13:37 51°25.962 3°6.874 63.1 11.7 67 9.8
2011-07-06 11:14:37 51°26.042 3°7.156 62.6 11.5 65 9.4
2011-07-06 11:15:37 51°26.127 3°7.427 59.3 11.4 62 8.2
2011-07-06 11:16:37 51°26.195 3°7.71 71 11.6 77 8.8
2011-07-06 11:17:37 51°26.264 3°7.995 60.1 11.6 61 9.2
2011-07-06 11:18:37 51°26.293 3°8.202 100 5.7 117 9.3
2011-07-06 11:19:37 51°26.226 3°8.265 164.4 4.4 175 9.2
2011-07-06 11:20:37 51°26.159 3°8.241 213.9 3.9 210 9.1
2011-07-06 11:21:37 51°26.124 3°8.187 258.1 1.5 232 9
2011-07-06 11:22:37 51°26.11 3°8.177 292.6 0.8 191 9.2
2011-07-06 11:23:41 51°26.096 3°8.177 314.7 0.9 183 9.3
2011-07-06 11:24:39 51°26.082 3°8.179 325.7 0.9 167 9.2
2011-07-06 11:25:37 51°26.067 3°8.182 334.3 0.8 169 9.3
2011-07-06 11:26:37 51°26.053 3°8.185 335.4 0.8 176 8.9
2011-07-06 11:27:37 51°26.04 3°8.185 332.2 0.8 182 9
2011-07-06 11:28:37 51°26.025 3°8.185 330.2 0.8 180 8.9
2011-07-06 11:29:37 51°26.011 3°8.188 331.8 0.9 170 9.1
2011-07-06 11:30:37 51°25.996 3°8.194 332.7 1 166 9.1
2011-07-06 11:31:37 51°25.98 3°8.204 338.6 1.1 167 8.9
2011-07-06 11:32:37 51°25.963 3°8.214 344.2 1.1 160 9.1
2011-07-06 11:33:37 51°25.946 3°8.224 346.6 1.1 159 9
2011-07-06 11:34:37 51°25.929 3°8.235 343.3 0.9 152 9.1
2011-07-06 11:35:37 51°25.915 3°8.244 337.4 0.9 160 9.2
2011-07-06 11:36:37 51°25.901 3°8.254 333.5 0.9 150 9.3
2011-07-06 11:37:37 51°25.888 3°8.267 334.8 0.9 147 9.2
2011-07-06 11:38:37 51°25.874 3°8.281 338.2 1 147 9.2
2011-07-06 11:39:37 51°25.86 3°8.295 340.6 1 152 9.3
2011-07-06 11:40:37 51°25.846 3°8.309 339.6 1 147 9.5
2011-07-06 11:41:37 51°25.833 3°8.323 336.8 0.9 147 9.1
2011-07-06 11:42:37 51°25.82 3°8.337 332.5 1 149 9
2011-07-06 11:43:37 51°25.805 3°8.352 335.2 1.1 144 9.3
2011-07-06 11:44:37 51°25.79 3°8.365 338.3 1 155 9.1
2011-07-06 11:45:37 51°25.774 3°8.377 338.8 1.1 159 9.1
2011-07-06 11:46:37 51°25.759 3°8.388 336.9 0.9 149 9.3
2011-07-06 11:47:37 51°25.744 3°8.398 334.8 0.9 155 8.9
2011-07-06 11:48:37 51°25.731 3°8.408 330.5 0.9 158 8.9
2011-07-06 11:49:37 51°25.738 3°8.392 325.6 4.2 313 8.8
2011-07-06 11:50:37 51°25.833 3°8.246 325.5 10.4 321 9.6
2011-07-06 11:51:37 51°25.974 3°8.048 322.4 11.6 318 8.9
2011-07-06 11:52:37 51°26.121 3°7.846 323.8 11.7 318 8.6
2011-07-06 11:53:37 51°26.268 3°7.643 324.6 11.6 319 8.6
2011-07-06 11:54:37 51°26.382 3°7.541 8.4 4.4 11 9.4
2011-07-06 11:55:37 51°26.421 3°7.586 46 2.5 65 9.4
2011-07-06 11:56:37 51°26.427 3°7.657 72 2.8 92 9.4
2011-07-06 11:57:37 51°26.418 3°7.735 88.1 3 110 9.2
2011-07-06 11:58:37 51°26.394 3°7.809 103 3.1 122 9.5
2011-07-06 11:59:37 51°26.362 3°7.875 114.5 3.1 131 9.6
2011-07-06 12:00:37 51°26.323 3°7.933 122.1 3.2 139 9.4
2011-07-06 12:01:37 51°26.283 3°7.988 126.4 3.2 141 9.6
2011-07-06 12:02:37 51°26.24 3°8.037 131.5 3.2 142 9.6
2011-07-06 12:03:37 51°26.197 3°8.084 134.8 3.2 147 9.5
2011-07-06 12:04:37 51°26.157 3°8.13 134 2.7 143 9.7
2011-07-06 12:05:37 51°26.12 3°8.169 134.7 2.5 148 9.5
2011-07-06 12:06:37 51°26.083 3°8.202 138.7 2.6 152 9.4
2011-07-06 12:07:37 51°26.044 3°8.242 129.5 2.9 143 9.7
2011-07-06 12:08:37 51°26.004 3°8.292 131.2 3 140 9.8
2011-07-06 12:09:37 51°25.961 3°8.341 132.9 3.2 147 9.6
2011-07-06 12:10:37 51°25.915 3°8.39 132.4 3.4 144 9.5
2011-07-06 12:11:37 51°25.875 3°8.43 138.1 2.4 152 9.5
2011-07-06 12:12:37 51°25.843 3°8.458 141.7 2.5 151 9.4
2011-07-06 12:13:37 51°25.815 3°8.54 72.6 3.8 82 9.2
2011-07-06 12:14:37 51°25.86 3°8.573 341 3.4 327 9.3
2011-07-06 12:15:37 51°25.869 3°8.483 264.6 4.2 247 9.4
2011-07-06 12:16:37 51°25.798 3°8.377 219.9 8.2 217 8.9
2011-07-06 12:17:37 51°25.663 3°8.217 219.6 10.9 219 8.8
2011-07-06 12:18:37 51°25.51 3°8.008 224.6 12.9 224 8.9
2011-07-06 12:19:37 51°25.339 3°7.797 212.2 13.2 211 8.5
2011-07-06 12:20:37 51°25.152 3°7.62 205.2 13 203 8.7
2011-07-06 12:21:37 51°24.939 3°7.593 166.5 13.2 168 9.3
2011-07-06 12:22:37 51°24.732 3°7.71 155.1 13.2 158 10.6
2011-07-06 12:23:37 51°24.558 3°7.903 129.4 12.8 126 10.8
2011-07-06 12:24:37 51°24.447 3°8.191 116.3 12.6 118 11.3
2011-07-06 12:25:37 51°24.351 3°8.494 112.6 12.8 118 12.9
2011-07-06 12:26:37 51°24.25 3°8.793 120 12.8 122 16.6
2011-07-06 12:27:37 51°24.123 3°9.056 128.3 12.3 134 18.4
2011-07-06 12:28:37 51°23.988 3°9.302 127.8 12.4 132 18.2
2011-07-06 12:29:37 51°23.857 3°9.556 126 12.4 128 15.7
2011-07-06 12:30:37 51°23.728 3°9.809 125.5 12.4 129 14.3
2011-07-06 12:31:37 51°23.601 3°10.068 124.2 12.4 127 14.3
2011-07-06 12:32:37 51°23.473 3°10.326 124.1 12.3 130 13.8
2011-07-06 12:33:37 51°23.341 3°10.574 124.7 12.5 131 13
2011-07-06 12:34:37 51°23.197 3°10.806 138.1 12.1 142 12.2
2011-07-06 12:35:37 51°23.008 3°10.943 160.2 12.5 165 12.7
2011-07-06 12:36:37 51°22.81 3°11.036 160 12.3 164 13.6
2011-07-06 12:37:37 51°22.613 3°11.133 154.4 12 158 14.6
2011-07-06 12:38:37 51°22.543 3°11.267 83.5 4.5 80 15.2
2011-07-06 12:39:37 51°22.549 3°11.44 102.7 9 107 15
2011-07-06 12:40:37 51°22.529 3°11.67 74.8 6 73 15.2
2011-07-06 12:41:37 51°22.562 3°11.739 25.6 1.6 17 14.7
2011-07-06 12:42:37 51°22.573 3°11.742 353.1 0.5 10 15.4
2011-07-06 12:43:37 51°22.579 3°11.741 339.2 0.3 333 14.8
2011-07-06 12:44:37 51°22.583 3°11.741 332.7 0.2 36 14.7
2011-07-06 12:45:37 51°22.586 3°11.744 330.7 0.3 53 15.1
2011-07-06 12:46:37 51°22.588 3°11.75 336.5 0.3 81 14.9
2011-07-06 12:47:37 51°22.588 3°11.76 343.9 0.3 83 14.5
2011-07-06 12:48:37 51°22.588 3°11.768 352.6 0.2 87 14.8
2011-07-06 12:49:37 51°22.588 3°11.775 354.3 0.3 102 14.8
2011-07-06 12:50:37 51°22.587 3°11.784 356.5 0.2 112 14.7
2011-07-06 12:51:37 51°22.586 3°11.793 357.5 0.4 103 14.7
2011-07-06 12:52:37 51°22.585 3°11.803 356 0.5 89 15
2011-07-06 12:53:37 51°22.584 3°11.813 353.7 0.3 97 15.1
2011-07-06 12:54:37 51°22.584 3°11.823 354.2 0.4 89 14.8
2011-07-06 12:55:37 51°22.585 3°11.833 354 0.5 89 15.2
2011-07-06 12:56:37 51°22.585 3°11.844 356.8 0.5 86 14.9
2011-07-06 12:57:37 51°22.586 3°11.855 353 0.3 78 14.7
2011-07-06 12:58:37 51°22.587 3°11.867 355.3 0.4 80 14.5
2011-07-06 12:59:37 51°22.587 3°11.877 354.2 0.4 85 15.1
2011-07-06 13:00:37 51°22.588 3°11.888 354.2 0.4 86 14.6
2011-07-06 13:01:37 51°22.588 3°11.901 352.7 0.6 90 15.2
2011-07-06 13:02:37 51°22.588 3°11.914 354.5 0.5 95 14.7
2011-07-06 13:03:37 51°22.587 3°11.93 355.4 0.6 92 14.7
2011-07-06 13:04:37 51°22.587 3°11.945 355 0.5 94 14.7
2011-07-06 13:05:37 51°22.587 3°11.958 353.4 0.5 90 14.5
2011-07-06 13:06:37 51°22.586 3°11.971 352.8 0.6 101 14.7
2011-07-06 13:07:37 51°22.585 3°11.986 356.1 0.8 92 15.1
2011-07-06 13:08:37 51°22.584 3°12.002 1 0.6 94 14.4
2011-07-06 13:09:37 51°22.583 3°12.019 4.4 0.6 99 14.5
2011-07-06 13:10:37 51°22.583 3°12.036 1.7 0.5 88 14.4
2011-07-06 13:11:37 51°22.584 3°12.051 356.9 0.6 89 14.8
2011-07-06 13:12:37 51°22.585 3°12.068 354.3 0.9 76 15
2011-07-06 13:13:37 51°22.617 3°12.096 32.8 2.8 33 14.3
2011-07-06 13:14:37 51°22.649 3°12.148 43.1 2.8 47 14.3
2011-07-06 13:15:37 51°22.677 3°12.206 59.6 2.6 61 13.8
2011-07-06 13:16:37 51°22.691 3°12.271 73.4 2.6 76 14.4
2011-07-06 13:17:37 51°22.698 3°12.34 83.1 2.6 83 14.1
2011-07-06 13:18:37 51°22.702 3°12.41 85.8 2.6 86 13.8
2011-07-06 13:19:37 51°22.704 3°12.48 90 2.7 91 13.5
2011-07-06 13:20:37 51°22.7 3°12.552 99.2 2.7 99 13.6
2011-07-06 13:21:37 51°22.691 3°12.618 109.7 2.5 105 13.5
2011-07-06 13:22:37 51°22.677 3°12.677 119.8 2.3 111 13.5
2011-07-06 13:23:37 51°22.662 3°12.73 125.8 2.1 113 13.5
2011-07-06 13:24:37 51°22.647 3°12.779 129.6 2.1 122 13.2
2011-07-06 13:25:37 51°22.631 3°12.827 132.5 2 120 13.6
2011-07-06 13:26:37 51°22.612 3°12.872 140.9 2.1 130 13.2
2011-07-06 13:27:37 51°22.591 3°12.913 147.6 1.9 129 13.4
2011-07-06 13:28:37 51°22.57 3°12.951 153.1 1.9 136 13.1
2011-07-06 13:29:37 51°22.548 3°12.986 157.3 1.9 130 13.6
2011-07-06 13:30:37 51°22.526 3°13.018 163.9 1.7 142 13
2011-07-06 13:31:37 51°22.503 3°13.048 165.4 1.7 144 13.2
2011-07-06 13:32:37 51°22.479 3°13.077 168.4 1.8 142 13.2
2011-07-06 13:33:37 51°22.457 3°13.107 168.5 1.8 145 12.9
2011-07-06 13:34:37 51°22.437 3°13.137 175.1 1.9 144 13.1
2011-07-06 13:35:37 51°22.394 3°13.127 228.2 3.4 219 12.5
2011-07-06 13:36:37 51°22.36 3°12.926 262.8 10.8 262 13.5
2011-07-06 13:37:37 51°22.335 3°12.621 265.5 11.7 265 14.3
2011-07-06 13:38:37 51°22.312 3°12.312 260.6 11.7 258 15
2011-07-06 13:39:37 51°22.268 3°12.007 258.7 11.8 258 16.2
2011-07-06 13:40:37 51°22.221 3°11.705 255 11.7 254 16.9
2011-07-06 13:41:37 51°22.151 3°11.419 247.7 11.6 247 17.4
2011-07-06 13:42:37 51°22.076 3°11.134 248.3 11.6 247 19.5
2011-07-06 13:43:37 51°22.007 3°10.845 253.5 11.7 252 17.8
2011-07-06 13:44:37 51°21.947 3°10.55 251.9 11.5 252 16.6
2011-07-06 13:45:37 51°21.879 3°10.261 249.6 11.6 249 15.2
2011-07-06 13:46:37 51°21.81 3°9.971 247.1 11.7 245 13.9
2011-07-06 13:47:37 51°21.723 3°9.693 244 11.6 244 13
2011-07-06 13:48:37 51°21.649 3°9.404 248.8 11.8 249 12.1
2011-07-06 13:49:37 51°21.569 3°9.12 245.1 11.7 244 11.4
2011-07-06 13:50:37 51°21.487 3°8.841 245.1 11.6 246 10.8
2011-07-06 13:51:37 51°21.413 3°8.553 248.3 11.7 248 10.2
2011-07-06 13:52:37 51°21.325 3°8.276 241.3 11.7 240 10
2011-07-06 13:53:37 51°21.238 3°7.999 246.6 11.6 245 9.4
2011-07-06 13:54:37 51°21.142 3°7.731 235.4 11.7 236 9.2
2011-07-06 13:55:37 51°21.035 3°7.477 238 11.6 238 8.8
2011-07-06 13:56:37 51°20.943 3°7.206 242.5 11.5 242 8.9
2011-07-06 13:57:37 51°20.847 3°6.944 236.7 11.6 236 9.2
2011-07-06 13:58:37 51°20.743 3°6.69 237.4 11.3 238 9.1
2011-07-06 13:59:37 51°20.65 3°6.428 241.4 11.5 240 9.1
2011-07-06 14:00:37 51°20.558 3°6.164 241.2 11.4 242 8.8
2011-07-06 14:01:37 51°20.457 3°5.909 236.6 11.3 237 9
2011-07-06 14:02:37 51°20.357 3°5.655 237 11.2 235 9.1
2011-07-06 14:03:37 51°20.256 3°5.401 242.5 11.3 242 9.2
2011-07-06 14:04:37 51°20.174 3°5.135 244 11.1 243 9.2
2011-07-06 14:05:37 51°20.083 3°4.877 241.3 11.2 241 9.1
2011-07-06 14:06:37 51°20 3°4.614 244.8 11.1 244 9.2
2011-07-06 14:07:37 51°19.916 3°4.353 240.1 11 238 9.3
2011-07-06 14:08:37 51°19.827 3°4.097 243.1 10.9 243 9.9
2011-07-06 14:09:37 51°19.741 3°3.84 241.6 11 242 9.7
2011-07-06 14:10:37 51°19.661 3°3.581 243 11 242 9.7
2011-07-06 14:11:37 51°19.572 3°3.326 240.1 11 238 9.7
2011-07-06 14:12:37 51°19.48 3°3.079 241.7 10.8 242 9.8
2011-07-06 14:13:37 51°19.399 3°2.823 242.1 10.7 241 10
2011-07-06 14:14:37 51°19.312 3°2.574 240.3 10.6 240 10.1
2011-07-06 14:15:37 51°19.228 3°2.322 244.4 10.8 244 10
2011-07-06 14:16:37 51°19.15 3°2.063 243.3 10.9 243 9.8
2011-07-06 14:17:37 51°19.06 3°1.82 241.1 10.7 240 10.2
2011-07-06 14:18:37 51°18.973 3°1.577 241.3 10.6 242 10.1
2011-07-06 14:19:37 51°18.895 3°1.325 245.1 10.7 245 10.1
2011-07-06 14:20:37 51°18.827 3°1.067 246.7 10.6 248 10.4
2011-07-06 14:21:37 51°18.759 3°0.812 245.9 10.5 246 9.9
2011-07-06 14:22:37 51°18.685 3°0.556 245 10.7 246 10.1
2011-07-06 14:23:37 51°18.614 3°0.3 246.1 10.4 247 10.5
2011-07-06 14:24:37 51°18.548 3°0.044 247.1 10.3 246 10.6
2011-07-06 14:25:37 51°18.472 2°59.79 242.9 10.7 245 10.5
2011-07-06 14:26:37 51°18.433 2°59.64 262 2.9 274 11
2011-07-06 14:27:37 51°18.446 2°59.621 269.1 1 28 11.2
2011-07-06 14:28:40 51°18.463 2°59.671 296.9 2.4 67 -999
2011-07-06 14:29:41 51°18.475 2°59.735 329 2.7 71 10.7
2011-07-06 14:30:40 51°18.484 2°59.791 353.5 2.3 73 10.7
2011-07-06 14:31:39 51°18.495 2°59.847 2.3 2.4 70 11
2011-07-06 14:32:38 51°18.508 2°59.903 2 2.2 68 10.7
2011-07-06 14:33:37 51°18.523 2°59.957 355.7 2.5 65 10.7
2011-07-06 14:34:37 51°18.538 3°0.013 353.2 2.4 66 11.1
2011-07-06 14:35:37 51°18.554 3°0.069 348.7 2.3 65 10.6
2011-07-06 14:36:37 51°18.57 3°0.127 345.6 2.4 66 11.1
2011-07-06 14:37:37 51°18.584 3°0.186 344.5 2.2 70 10.9
2011-07-06 14:38:37 51°18.597 3°0.249 349.2 2.2 70 10.5
2011-07-06 14:39:37 51°18.611 3°0.312 355.3 2.7 67 10.7
2011-07-06 14:40:37 51°18.627 3°0.372 350 2.3 63 10.8
2011-07-06 14:41:37 51°18.644 3°0.431 345.7 2.6 63 11
2011-07-06 14:42:37 51°18.661 3°0.492 344.8 2.5 69 11.3
2011-07-06 14:43:37 51°18.678 3°0.554 345.5 2.9 70 11.7
2011-07-06 14:44:37 51°18.695 3°0.616 347.9 2.5 69 11
2011-07-06 14:45:37 51°18.711 3°0.678 351 2.5 66 11
2011-07-06 14:46:37 51°18.727 3°0.741 348.5 2.6 63 10.7
2011-07-06 14:47:37 51°18.746 3°0.804 350.2 2.2 62 10.9
2011-07-06 14:48:37 51°18.765 3°0.865 345.2 2.7 66 11.2
2011-07-06 14:49:37 51°18.783 3°0.927 344.3 2.8 64 11.5
2011-07-06 14:50:37 51°18.802 3°0.991 346.6 2.6 64 10.8
2011-07-06 14:51:37 51°18.822 3°1.053 346.2 2.7 64 11.2
2011-07-06 14:52:37 51°18.842 3°1.119 351.4 2.6 61 10.8
2011-07-06 14:53:37 51°18.863 3°1.185 350.7 2.7 58 10.2
2011-07-06 14:54:37 51°18.885 3°1.251 347.2 2.7 63 10.8
2011-07-06 14:55:37 51°18.906 3°1.318 346.5 2.6 63 11.2
2011-07-06 14:56:37 51°18.926 3°1.385 350.2 2.7 65 11.3
2011-07-06 14:57:37 51°18.946 3°1.455 353.8 3 68 11
2011-07-06 14:58:37 51°18.965 3°1.525 359 3.1 67 11.5
2011-07-06 14:59:37 51°18.986 3°1.595 1.2 2.8 64 11.2
2011-07-06 15:00:37 51°19.008 3°1.664 354.2 2.9 61 11.2
2011-07-06 15:01:37 51°19.051 3°1.735 20.8 4.3 46 11
2011-07-06 15:02:37 51°19.098 3°1.84 60.2 5.1 65 11.3
2011-07-06 15:03:37 51°19.117 3°1.964 111.2 4.4 87 11
2011-07-06 15:04:37 51°19.108 3°2.073 145 4.2 107 11
2011-07-06 15:05:37 51°19.089 3°2.173 157.2 3.4 107 10.8
2011-07-06 15:06:37 51°19.076 3°2.258 169 3.3 101 11.6
2011-07-06 15:07:37 51°19.064 3°2.333 177.2 2.8 102 11.7
2011-07-06 15:08:37 51°19.053 3°2.403 180.3 2.7 102 11.4
2011-07-06 15:09:37 51°19.043 3°2.47 185.2 2.4 102 11.1
2011-07-06 15:10:37 51°19.034 3°2.536 186 2.7 101 11.8
2011-07-06 15:11:37 51°19.025 3°2.6 188.6 2.7 103 11.8
2011-07-06 15:12:37 51°19.017 3°2.664 189.5 2.4 98 11.2
2011-07-06 15:13:37 51°19.01 3°2.728 190.2 2.4 95 11
2011-07-06 15:14:37 51°19.005 3°2.79 195.3 2.2 95 11.5
2011-07-06 15:15:37 51°19.004 3°2.851 193.9 2.3 85 11.6
2011-07-06 15:16:37 51°18.996 3°2.909 201.4 1.9 111 10.9
2011-07-06 15:17:37 51°18.993 3°2.964 201.9 2.1 82 11.1
2011-07-06 15:18:37 51°18.984 3°3.012 201.6 2.7 163 11.1
2011-07-06 15:19:37 51°18.883 3°2.952 217.1 8.7 212 10.8
2011-07-06 15:20:38 51°18.777 3°2.782 235.1 9.3 233 11.3
2011-07-06 15:21:37 51°18.693 3°2.582 236.9 8.9 236 11.2
2011-07-06 15:22:37 51°18.61 3°2.381 237.2 9.1 237 11.2
2011-07-06 15:23:37 51°18.528 3°2.17 239.5 9.4 240 11.1
2011-07-06 15:24:37 51°18.45 3°1.962 238.7 9.1 238 11
2011-07-06 15:25:37 51°18.37 3°1.755 240.3 9.1 241 11.8
2011-07-06 15:26:37 51°18.298 3°1.532 243 9.4 244 11
2011-07-06 15:27:37 51°18.225 3°1.314 240.5 9.6 241 11.7
2011-07-06 15:28:37 51°18.146 3°1.087 241.4 9.8 241 10.8
2011-07-06 15:29:37 51°18.064 3°0.859 238.9 9.9 240 11.5
2011-07-06 15:30:37 51°17.978 3°0.645 238.7 9.7 239 11.2
2011-07-06 15:31:37 51°17.897 3°0.428 239.9 9.5 238 11.8
2011-07-06 15:32:37 51°17.819 3°0.201 243.1 9.8 242 12
2011-07-06 15:33:37 51°17.739 2°59.97 240.5 10.1 241 11.6
2011-07-06 15:34:37 51°17.658 2°59.739 240.1 9.8 240 11.9
2011-07-06 15:35:37 51°17.571 2°59.518 237.4 9.7 238 12.2
2011-07-06 15:36:37 51°17.484 2°59.292 240.6 10.1 242 11.9
2011-07-06 15:37:37 51°17.408 2°59.055 242.7 10 242 11.6
2011-07-06 15:38:37 51°17.322 2°58.826 238.7 10.2 238 12.1
2011-07-06 15:39:37 51°17.234 2°58.593 240.3 10.3 240 13
2011-07-06 15:40:37 51°17.149 2°58.359 241.3 10 242 12.4
2011-07-06 15:41:37 51°17.07 2°58.119 241.1 10.3 241 12.4
2011-07-06 15:42:37 51°16.982 2°57.888 238 10 238 12.3
2011-07-06 15:43:37 51°16.887 2°57.666 236.4 10.2 235 12.4
2011-07-06 15:44:37 51°16.795 2°57.45 236.6 9.9 235 13.1
2011-07-06 15:45:37 51°16.703 2°57.228 236.9 10.1 237 12.8
2011-07-06 15:46:37 51°16.607 2°57.008 234.9 10.1 233 12.5
2011-07-06 15:47:37 51°16.506 2°56.802 232.6 9.9 232 12.2
2011-07-06 15:48:37 51°16.407 2°56.586 235.4 10.1 234 12.7
2011-07-06 15:49:37 51°16.307 2°56.369 232.9 10.2 230 12.5
2011-07-06 15:50:37 51°16.198 2°56.162 231.8 10.3 231 12.8
2011-07-06 15:51:37 51°16.086 2°55.953 229.9 10.2 226 12.9
2011-07-06 15:52:37 51°15.968 2°55.755 228.8 10.4 228 12.9
2011-07-06 15:53:37 51°15.855 2°55.55 229.5 10.3 227 12.8
2011-07-06 15:54:37 51°15.736 2°55.358 225.3 10 221 12.3
2011-07-06 15:55:37 51°15.608 2°55.186 219.9 10.1 213 12.2
2011-07-06 15:56:37 51°15.45 2°55.072 207.4 10.6 202 11.7
2011-07-06 15:57:37 51°15.289 2°54.962 206.8 10.6 201 11.3
2011-07-06 15:58:37 51°15.121 2°54.885 198.1 10.4 192 10.8
2011-07-06 15:59:37 51°14.944 2°54.857 189.4 10.9 180 12.6
2011-07-06 16:00:37 51°14.762 2°54.889 171.7 11.4 162 12.8
2011-07-06 16:01:37 51°14.588 2°55.033 161.4 12 150 14.5
2011-07-06 16:02:37 51°14.405 2°55.156 148.9 12.2 151 13.5
2011-07-06 16:03:37 51°14.228 2°55.328 148.9 12.3 150 13.7
2011-07-06 16:04:37 51°14.066 2°55.459 153.6 9.1 154 13.8
2011-07-06 16:05:37 51°13.949 2°55.544 155.4 6.9 156 14.1
2011-07-06 16:06:37 51°13.846 2°55.618 154 6.7 155 13.7
2011-07-06 16:07:37 51°13.769 2°55.697 136.6 4.6 136 13.5
2011-07-06 16:08:37 51°13.725 2°55.778 128.1 3.7 127 15.3
2011-07-06 16:09:37 51°13.69 2°55.851 129.1 3.1 128 12.4
2011-07-06 16:10:37 51°13.665 2°55.91 125.1 2.5 124 13
2011-07-06 16:11:41 51°13.646 2°55.968 111.8 2.2 113 13